x

Destruction Island, Wa (desw1) Weather Station

8:00 - Thu 24th Apr 2014 All times are PDT. -7 hours from GMT.

  • Wind
    28mph, 30mph gusts
  • Luft Temp 48°f
  • Sea Pressure 1004mb
  • Destruction Island, Wa
  • Destruction Island, Wa

More Historic Weather Station data

Upgrade to MSW Pro to gain access to the past 30 days of data for over 8000 Wavebouys and Weather Stations around the globe.

Join Pro

Comparision Forecast

View Surf forecast
   
Do 04/24 8:00 28 30 mph 1004mb 48f
7:00 22 23 mph 1003.6mb 50f
6:00 18 21 mph 1003.3mb 50f
5:00 22 23 mph 1002.5mb 49f
4:00 23 24 mph 1001.7mb 49f
3:00 28 30 mph 1000.9mb 49f
2:00 25 28 mph 1000.5mb 51f
1:00 33 36 mph 999.8mb 51f
12:00 29 32 mph 999.9mb 51f
Mi 04/23 11:00 33 36 mph 1000mb 49f
10:00 30 33 mph 1000.9mb 49f
9:00 25 29 mph 1001.5mb 49f
8:00 24 29 mph 1003mb 49f
7:00 25 26 mph 1004.3mb 49f
6:00 16 20 mph 1005.5mb 49f
5:00 18 20 mph 1006.8mb 50f
4:00 20 21 mph 1007.8mb 50f
3:00 21 22 mph 1009.2mb 49f
2:00 17 20 mph 1010.1mb 51f
1:00 23 26 mph 1010.5mb 50f
12:00 8 9 mph 1011.1mb 49f
11:00 16 17 mph 1011.1mb 48f
10:00 17 18 mph 1010.9mb 47f
9:00 18 20 mph 1010.9mb 46f
8:00 17 20 mph 1011mb 46f
7:00 11 14 mph 1011mb 46f
6:00 17 18 mph 1010.6mb 46f
5:00 14 16 mph 1010.6mb 47f
4:00 8 9 mph 1010.6mb 45f
3:00 16 20 mph 1010.7mb 45f
2:00 16 17 mph 1010.5mb 47f
1:00 20 22 mph 1010.1mb 49f
12:00 15 18 mph 1010.2mb 48f
Di 04/22 11:00 18 20 mph 1009.9mb 47f
10:00 13 14 mph 1010mb 48f
9:00 16 17 mph 1009.9mb 48f
8:00 22 23 mph 1009.7mb 48f
7:00 25 28 mph 1009.7mb 47f
6:00 17 20 mph 1010.5mb 46f
5:00 23 29 mph 1010.9mb 46f
4:00 29 32 mph 1011.2mb 47f
3:00 20 23 mph 1011.7mb 49f
2:00 17 21 mph 1011.7mb 50f
1:00 17 21 mph 1011.9mb 50f
12:00 16 18 mph 1012.2mb 49f
11:00 13 16 mph 1012.2mb 48f
10:00 10 11 mph 1012mb 48f
9:00 5 6 mph 1012.1mb 47f
8:00 6 7 mph 1012.4mb 45f
7:00 7 8 mph 1012.3mb 47f
6:00 9 11 mph 1012.3mb 47f
5:00 14 16 mph 1012.1mb 47f
4:00 14 15 mph 1012.1mb 47f
3:00 14 16 mph 1012.3mb 47f
2:00 18 20 mph 1012.1mb 47f
1:00 17 18 mph 1012.2mb 48f
12:00 20 21 mph 1012.2mb 48f
Mo 04/21 11:00 8 9 mph 1012.6mb 47f
10:00 10 11 mph 1012.8mb 47f
9:00 8 9 mph 1013.3mb 47f
8:00 14 15 mph 1013mb 47f
7:00 15 17 mph 1013.4mb 47f
6:00 20 22 mph 1014mb 47f
5:00 20 22 mph 1014.4mb 46f
4:00 15 16 mph 1014.6mb 47f
3:00 13 14 mph 1015mb 47f
2:00 9 11 mph 1015.4mb 48f
1:00 9
mph
1015.7mb 47f
12:00 6 7 mph 1016.4mb 47f
11:00 7 9 mph 1016.7mb 47f
10:00 5
mph
1016.8mb 47f
9:00 5 6 mph 1017.2mb 47f
8:00 2
mph
1017.7mb 46f
7:00 2 3 mph 1017.9mb 47f
6:00 5
mph
1018mb 47f
5:00 5
mph
1018.5mb 47f
4:00 2 3 mph 1018.9mb 47f
3:00 5 6 mph 1019.3mb 47f
2:00 11 14 mph 1019.6mb 49f
1:00 21 23 mph 1019.3mb 51f
12:00 22 24 mph 1019.4mb 51f
So 04/20 11:00 20 22 mph 1019.9mb 51f
10:00 16 17 mph 1020.5mb 51f
9:00 15 16 mph 1020.7mb 51f
8:00 15 17 mph 1020.9mb 51f
7:00 21 23 mph 1021.4mb 51f
6:00 22 25 mph 1021.9mb 51f
5:00 22 26 mph 1022mb 51f